Reading, KS (66868)

12:52 PM CDT on September 18, 2014 (GMT -0500)
East Emporia Kansas | Change Station
CLOSE
Current Station
Personal Weather Station
Location: Emporia, KS
Elevation: 1106 ft
Nearby Weather Stations
Active Advisory: Flash Flood Warning Active Notice: Local Storm Report

Elev 1106 ft 38.39 °N, 96.12 °W | Updated 7 minutes ago

Overcast
Overcast
68.9 °F
Feels Like 68.9 °F
N
0.0
Wind Variable Wind from NNE

Today
High -- | Low -- °F
--% Chance of Precip.
Yesterday
High -- | Low -- °F
Precip. -- in
7:08 AM 7:27 PM
Waning Crescent, 25% visible
Pressure 30.00 in
Visibility 10.0 miles
Clouds Overcast 400 ft
Dew Point 63 °F
Humidity 82%
Rainfall 0.00 in
Snow Depth Not available.
UV 2 out of 12
Pollen 4.70 out of 12
Air Quality Not available.
Flu Activity Not available.
METAR KEMP 181653Z AUTO 31004KT 10SM OVC004 19/18 A3001 RMK AO2 LTG DSNT SW AND W CIG 003V009 SLP158 T01890178

More Conditions Fewer Conditions

Pressure 30.00 in
Visibility 10.0 miles
Clouds Overcast 400 ft
Dew Point 63 °F
Humidity 82%
Rainfall 0.00 in
Snow Depth Not available.
UV 2 out of 12
Pollen 4.70 out of 12
Air Quality Not available.
Flu Activity Not available.
METAR KEMP 181653Z AUTO 31004KT 10SM OVC004 19/18 A3001 RMK AO2 LTG DSNT SW AND W CIG 003V009 SLP158 T01890178

More Conditions Fewer Conditions

10-Day Weather Forecast

Almanac

Astronomy

Sep. 18, 2014 Rise Set
Actual Time 7:08 AM CDT 7:27 PM CDT
Civil Twilight 6:41 AM CDT 7:53 PM CDT
Nautical Twilight 6:10 AM CDT 8:24 PM CDT
Astronomical Twilight 5:38 AM CDT 8:56 PM CDT
Moon 2:04 AM CDT 4:16 PM CDT
Length of Visible Light 13h 12m
Length of Day
12h 19m
Tomorrow will be 2m 29s shorter.
Waning Crescent, 25% of the Moon is Illuminated
Today
Waning Crescent
Sep 24
New
Oct 1
First Quarter
Oct 8
Full
Oct 15
Last Quarter

Today's Extremes

State Highs State Lows

Community

WunderPhotos

Upload Photos

1,754,409 photos uploaded!

Nearby

Snow Depth

Station Depth Elevation
No new snow has been reported.

Earthquake Activity

City Distance Mag. Time & Date
Medford, Oklahoma 161 miles 3.0 5:28 AM CDT
2014-09-18
Medford, Oklahoma 155 miles 3.2 6:09 AM CDT
2014-09-17
Medford, Oklahoma 152 miles 3.3 5:35 PM CDT
2014-09-16
Medford, Oklahoma 151 miles 2.6 3:18 AM CDT
2014-09-16
Minimum magnitude displayed is 2.5.

Coastal Water Temperatures

Place Temperature
No Stations Reporting

Nearby Weather Stations